Portada
METAR-TAF:

METAR-TAF

Aeroports :

Thimphu, Índia

latitud: 27-24-32N, longitud: 89-25-14E, altitud: 2235 m

Observació

L'informe es va fer fa 15 hores i 6 minuts, a les 09:30 UTC
Vent 11 kt del Sud/Sud-Est amb ràfegues de 22 kt
Temperatura 19°C
Humitat 21%
Pressió 1016 hPa
Visibilitat 10 km o més
Escasses núvols a una alçada de 3000 ft

METAR: VQPR 030930Z 15011G22KT 9999 FEW030 19/M04 Q1016

Hora: 06:36 (00:36 UTC)


TAF: manca

Observacions i pronòstics meteorològics de més de 4000 aeroports (METAR i TAF).

Les estacions disponibles són els punts grocs i vermells al mapa.

Posi el ratolí al punt desitjat per veure el nom de l'estació.

Feu clic per veure les observacions i els pronòstics meteorològics.

Per canviar el mapa: feu clic els botons verds amb una creu de color negre per apropar; al botó verd amb un guió per allunyar la imatge; o en les fletxes verdes per a mapes adjacents.


METAR-TAF: